createdAt,value
2022-09-17T00:01:24.938Z,60.40
2022-09-17T00:03:55.004Z,60.00
2022-09-17T00:06:24.881Z,60.30
2022-09-17T00:08:54.538Z,60.00
2022-09-17T00:11:26.145Z,59.60
2022-09-17T00:13:55.422Z,59.80
2022-09-17T00:16:29.239Z,59.40
2022-09-17T00:18:58.331Z,58.90
2022-09-17T00:21:27.122Z,59.10
2022-09-17T00:23:56.262Z,58.90
2022-09-17T00:26:24.835Z,59.00
2022-09-17T00:28:54.092Z,59.10
2022-09-17T00:31:23.300Z,58.90
2022-09-17T00:33:53.812Z,58.70
2022-09-17T00:36:23.053Z,58.50
2022-09-17T00:38:51.814Z,58.60
2022-09-17T00:41:20.365Z,58.10
2022-09-17T00:43:52.066Z,58.20
2022-09-17T00:46:28.914Z,57.90
2022-09-17T00:49:00.150Z,57.90
2022-09-17T00:51:33.985Z,58.00
2022-09-17T00:54:03.951Z,58.10
2022-09-17T00:56:36.093Z,57.90
2022-09-17T00:59:04.613Z,58.00
2022-09-17T01:01:33.306Z,57.60
2022-09-17T01:04:03.511Z,57.90
2022-09-17T01:06:35.712Z,57.90
2022-09-17T01:09:23.214Z,57.40
2022-09-17T01:12:12.759Z,57.30
2022-09-17T01:14:54.017Z,58.00
2022-09-17T01:17:29.352Z,58.20
2022-09-17T01:20:27.896Z,59.10
2022-09-17T01:23:10.339Z,59.30
2022-09-17T01:25:49.698Z,59.10
2022-09-17T01:28:42.825Z,56.50
2022-09-17T01:31:27.171Z,55.50
2022-09-17T01:34:02.880Z,55.90
2022-09-17T01:36:41.816Z,56.20
2022-09-17T01:39:19.621Z,57.00
2022-09-17T01:41:54.750Z,57.60
2022-09-17T01:44:28.500Z,56.90
2022-09-17T01:47:02.750Z,57.80
2022-09-17T01:49:32.814Z,58.60
2022-09-17T01:52:03.181Z,57.90
2022-09-17T01:54:37.141Z,56.30
2022-09-17T01:57:13.063Z,55.50
2022-09-17T01:59:44.259Z,56.30
2022-09-17T02:02:17.789Z,56.30
2022-09-17T02:04:53.401Z,56.30
2022-09-17T02:07:24.145Z,57.00
2022-09-17T02:09:59.407Z,56.50
2022-09-17T02:12:33.185Z,56.80
2022-09-17T02:15:04.440Z,57.30
2022-09-17T02:17:39.185Z,57.80
2022-09-17T02:20:08.453Z,57.80
2022-09-17T02:22:43.416Z,57.90
2022-09-17T02:25:19.633Z,58.50
2022-09-17T02:27:59.055Z,58.70
2022-09-17T02:30:27.141Z,59.10
2022-09-17T02:32:57.120Z,61.90
2022-09-17T02:35:25.553Z,63.80
2022-09-17T02:37:53.525Z,64.60
2022-09-17T02:40:28.481Z,63.70
2022-09-17T02:43:12.029Z,63.30
2022-09-17T02:45:50.730Z,63.90
2022-09-17T02:48:35.307Z,65.00
2022-09-17T02:51:26.354Z,64.80
2022-09-17T02:54:02.116Z,65.50
2022-09-17T02:56:39.022Z,70.50
2022-09-17T02:59:13.419Z,70.10
2022-09-17T03:01:44.500Z,74.20
2022-09-17T03:04:16.942Z,74.40
2022-09-17T03:06:47.389Z,72.20
2022-09-17T03:09:15.813Z,64.10
2022-09-17T03:11:44.125Z,65.80
2022-09-17T03:14:12.116Z,67.00
2022-09-17T03:16:40.250Z,68.00
2022-09-17T03:19:08.250Z,67.90
2022-09-17T03:21:37.598Z,69.40
2022-09-17T03:24:05.935Z,71.00
2022-09-17T03:26:33.979Z,69.50
2022-09-17T03:29:01.934Z,70.90
2022-09-17T03:31:30.321Z,69.70
2022-09-17T03:33:58.768Z,68.20
2022-09-17T03:36:27.074Z,68.00
2022-09-17T03:38:57.144Z,69.50
2022-09-17T03:41:25.689Z,71.70
2022-09-17T03:43:54.254Z,70.50
2022-09-17T03:46:22.429Z,71.20
2022-09-17T03:48:50.676Z,71.30
2022-09-17T03:51:18.677Z,71.50
2022-09-17T03:53:46.626Z,70.50
2022-09-17T03:56:16.248Z,70.90
2022-09-17T03:58:44.225Z,70.10
2022-09-17T04:01:12.590Z,70.10
2022-09-17T04:03:40.751Z,71.00
2022-09-17T04:06:09.006Z,72.30
2022-09-17T04:08:37.114Z,71.70
2022-09-17T04:11:05.185Z,70.90
2022-09-17T04:13:34.745Z,72.00
2022-09-17T04:16:03.534Z,72.20
2022-09-17T04:18:31.677Z,73.80
2022-09-17T04:21:00.201Z,75.80
2022-09-17T04:23:28.199Z,75.80
2022-09-17T04:25:56.282Z,74.20
2022-09-17T04:28:24.271Z,73.50
2022-09-17T04:30:53.791Z,73.30
2022-09-17T04:33:21.947Z,76.00
2022-09-17T04:35:50.274Z,76.60
2022-09-17T04:38:20.540Z,75.70
2022-09-17T04:40:48.647Z,76.30
2022-09-17T04:43:16.604Z,75.80
2022-09-17T04:45:47.148Z,75.80
2022-09-17T04:48:16.563Z,77.80
2022-09-17T04:50:44.941Z,78.70
2022-09-17T04:53:13.357Z,82.30
2022-09-17T04:55:41.364Z,82.10
2022-09-17T04:58:09.386Z,82.30
2022-09-17T05:00:38.455Z,83.40
2022-09-17T05:03:06.459Z,85.90
2022-09-17T05:05:35.855Z,85.00
2022-09-17T05:08:04.361Z,85.80
2022-09-17T05:10:32.350Z,87.70
2022-09-17T05:13:00.321Z,88.50
2022-09-17T05:15:28.884Z,88.90
2022-09-17T05:17:57.234Z,88.90
2022-09-17T05:20:25.236Z,89.50
2022-09-17T05:22:54.649Z,90.10
2022-09-17T05:25:24.892Z,90.90
2022-09-17T05:27:53.754Z,92.00
2022-09-17T05:30:22.235Z,92.10
2022-09-17T05:32:50.405Z,91.70
2022-09-17T05:35:18.559Z,91.20
2022-09-17T05:37:46.553Z,91.80
2022-09-17T05:40:16.809Z,91.80
2022-09-17T05:42:44.898Z,92.50
2022-09-17T05:45:12.947Z,93.10
2022-09-17T05:47:40.941Z,92.50
2022-09-17T05:50:09.600Z,92.90
2022-09-17T05:52:37.716Z,93.00
2022-09-17T05:55:06.381Z,92.90
2022-09-17T05:57:35.710Z,93.20
2022-09-17T06:00:04.844Z,93.20
2022-09-17T06:02:32.817Z,93.20
2022-09-17T06:05:01.913Z,92.70
2022-09-17T06:07:29.926Z,92.70
2022-09-17T06:09:57.994Z,92.60
2022-09-17T06:12:26.034Z,92.60
2022-09-17T06:14:57.416Z,92.70
2022-09-17T06:17:25.999Z,92.80
2022-09-17T06:19:54.210Z,92.80
2022-09-17T06:22:22.422Z,91.80
2022-09-17T06:24:50.445Z,91.50
2022-09-17T06:27:18.505Z,91.30
2022-09-17T06:29:46.485Z,91.90
2022-09-17T06:32:17.082Z,91.60
2022-09-17T06:34:45.148Z,91.90
2022-09-17T06:37:13.110Z,91.50
2022-09-17T06:39:41.178Z,92.10
2022-09-17T06:42:09.246Z,93.10
2022-09-17T06:44:37.252Z,92.70
2022-09-17T06:47:05.648Z,92.80
2022-09-17T06:49:35.002Z,92.70
2022-09-17T06:52:04.217Z,92.20
2022-09-17T06:54:32.259Z,92.50
2022-09-17T06:57:00.270Z,92.40
2022-09-17T06:59:28.365Z,91.80
2022-09-17T07:01:56.577Z,92.20
2022-09-17T07:04:24.694Z,91.80
2022-09-17T07:06:54.071Z,91.80
2022-09-17T07:09:22.027Z,92.00
2022-09-17T07:11:50.208Z,92.10
2022-09-17T07:14:19.172Z,92.00
2022-09-17T07:16:47.204Z,91.80
2022-09-17T07:19:15.243Z,92.30
2022-09-17T07:21:43.328Z,92.50
2022-09-17T07:24:12.670Z,92.30
2022-09-17T07:26:40.707Z,91.90
2022-09-17T07:29:09.029Z,90.90
2022-09-17T07:31:37.187Z,90.70
2022-09-17T07:34:05.300Z,89.10
2022-09-17T07:36:33.363Z,90.50
2022-09-17T07:39:01.609Z,91.00
2022-09-17T07:41:30.969Z,91.20
2022-09-17T07:43:59.219Z,91.30
2022-09-17T07:46:27.343Z,91.40
2022-09-17T07:48:55.329Z,91.00
2022-09-17T07:51:24.931Z,91.60
2022-09-17T07:53:53.553Z,92.00
2022-09-17T07:56:21.841Z,91.60
2022-09-17T07:58:51.718Z,91.70
2022-09-17T08:01:21.234Z,91.90
2022-09-17T08:03:50.773Z,92.00
2022-09-17T08:06:20.866Z,92.20
2022-09-17T08:08:49.532Z,92.80
2022-09-17T08:11:32.741Z,93.70
2022-09-17T08:14:07.985Z,94.00
2022-09-17T08:16:36.073Z,94.40
2022-09-17T08:19:04.130Z,94.40
2022-09-17T08:21:32.248Z,93.60
2022-09-17T08:24:00.278Z,93.40
2022-09-17T08:26:28.326Z,92.70
2022-09-17T08:28:57.225Z,92.50
2022-09-17T08:31:28.444Z,91.70
2022-09-17T08:33:56.828Z,91.00
2022-09-17T08:36:26.297Z,90.70
2022-09-17T08:38:58.643Z,90.80
2022-09-17T08:41:37.065Z,90.70
2022-09-17T08:44:16.686Z,90.20
2022-09-17T08:46:48.768Z,90.10
2022-09-17T08:49:26.420Z,89.40
2022-09-17T08:52:17.414Z,88.50
2022-09-17T08:54:51.937Z,87.00
2022-09-17T08:57:28.539Z,87.10
2022-09-17T09:00:03.017Z,86.70
2022-09-17T09:02:47.061Z,86.00
2022-09-17T09:05:17.873Z,86.60
2022-09-17T09:07:50.072Z,86.90
2022-09-17T09:10:22.463Z,86.10
2022-09-17T09:12:52.426Z,85.70
2022-09-17T09:15:29.460Z,85.60
2022-09-17T09:18:03.152Z,82.50
2022-09-17T09:20:39.239Z,82.80
2022-09-17T09:23:16.530Z,80.90
2022-09-17T09:25:56.065Z,79.80
2022-09-17T09:28:50.334Z,78.60
2022-09-17T09:31:35.715Z,78.70
2022-09-17T09:34:06.200Z,79.90
2022-09-17T09:36:34.774Z,79.60
2022-09-17T09:39:08.837Z,79.10
2022-09-17T09:41:44.237Z,79.80
2022-09-17T09:44:14.451Z,78.80
2022-09-17T09:47:15.573Z,77.60
2022-09-17T09:50:02.579Z,77.30
2022-09-17T09:52:45.675Z,77.80
2022-09-17T09:55:27.956Z,74.80
2022-09-17T09:58:04.283Z,71.60
2022-09-17T10:00:36.786Z,68.80
2022-09-17T10:03:12.217Z,66.90
2022-09-17T10:05:41.915Z,66.20
2022-09-17T10:08:13.980Z,60.40
2022-09-17T10:10:56.664Z,56.30
2022-09-17T10:13:25.050Z,53.20
2022-09-17T10:15:55.158Z,53.80
2022-09-17T10:18:24.771Z,52.00
2022-09-17T10:21:02.084Z,52.20
2022-09-17T10:23:33.977Z,48.90
2022-09-17T10:26:02.091Z,52.10
2022-09-17T10:28:34.990Z,49.80
2022-09-17T10:31:08.996Z,49.80
2022-09-17T10:33:41.140Z,49.00
2022-09-17T10:36:14.806Z,47.60
2022-09-17T10:38:44.485Z,47.50
2022-09-17T10:41:21.822Z,46.80
2022-09-17T10:43:50.706Z,44.80
2022-09-17T10:46:27.237Z,45.60
2022-09-17T10:49:06.416Z,44.10
2022-09-17T10:51:36.153Z,45.50
2022-09-17T10:54:19.493Z,45.20
2022-09-17T10:56:52.550Z,44.80
2022-09-17T10:59:46.989Z,44.00
2022-09-17T11:02:42.021Z,43.20
2022-09-17T11:05:27.533Z,44.00
2022-09-17T11:08:05.642Z,43.50
2022-09-17T11:10:39.533Z,43.20
2022-09-17T11:13:18.528Z,41.90
2022-09-17T11:16:01.954Z,42.80
2022-09-17T11:18:51.306Z,41.90
2022-09-17T11:21:42.847Z,43.50
2022-09-17T11:24:48.741Z,42.30
2022-09-17T11:27:39.944Z,41.80
2022-09-17T11:30:17.693Z,42.80
2022-09-17T11:33:10.555Z,42.50
2022-09-17T11:35:42.256Z,41.60
2022-09-17T11:38:16.720Z,41.90
2022-09-17T11:40:50.678Z,41.70
2022-09-17T11:43:27.882Z,42.40
2022-09-17T11:46:04.869Z,42.40
2022-09-17T11:48:40.561Z,42.80
2022-09-17T11:51:24.407Z,42.60
2022-09-17T11:53:56.999Z,41.20
2022-09-17T11:56:31.412Z,42.40
2022-09-17T11:59:04.747Z,42.10
2022-09-17T12:01:38.182Z,42.40
2022-09-17T12:04:30.697Z,40.70
2022-09-17T12:07:04.498Z,41.30
2022-09-17T12:09:38.081Z,41.70
2022-09-17T12:12:31.899Z,42.00
2022-09-17T12:15:07.784Z,42.40
2022-09-17T12:17:40.092Z,41.10
2022-09-17T12:20:17.027Z,40.80
2022-09-17T12:22:50.053Z,41.50
2022-09-17T12:25:18.139Z,42.90
2022-09-17T12:27:55.238Z,41.60
2022-09-17T12:30:26.423Z,42.20
2022-09-17T12:33:18.677Z,42.30
2022-09-17T12:36:10.349Z,41.00
2022-09-17T12:39:02.654Z,41.20
2022-09-17T12:41:40.513Z,41.30
2022-09-17T12:44:26.775Z,40.90
2022-09-17T12:47:09.100Z,39.60
2022-09-17T12:49:56.337Z,40.10
2022-09-17T12:52:38.195Z,42.10
2022-09-17T12:55:24.918Z,40.50
2022-09-17T12:58:01.244Z,40.10
2022-09-17T13:00:34.251Z,38.90
2022-09-17T13:03:07.466Z,39.60
2022-09-17T13:06:05.824Z,40.00
2022-09-17T13:09:06.862Z,40.70
2022-09-17T13:12:10.144Z,41.20
2022-09-17T13:14:58.792Z,39.90
2022-09-17T13:17:36.011Z,40.60
2022-09-17T13:20:15.777Z,41.00
2022-09-17T13:22:46.812Z,41.40
2022-09-17T13:25:17.820Z,40.70
2022-09-17T13:27:46.914Z,40.50
2022-09-17T13:30:17.143Z,41.10
2022-09-17T13:32:54.086Z,40.20
2022-09-17T13:35:50.830Z,40.80
2022-09-17T13:38:23.685Z,40.60
2022-09-17T13:40:53.024Z,39.80
2022-09-17T13:43:27.111Z,40.50
2022-09-17T13:46:12.419Z,40.80
2022-09-17T13:48:55.044Z,40.70
2022-09-17T13:51:59.687Z,40.20
2022-09-17T13:54:39.746Z,40.00
2022-09-17T13:57:12.203Z,39.40
2022-09-17T13:59:52.714Z,39.30
2022-09-17T14:02:33.960Z,39.40
2022-09-17T14:05:26.445Z,39.10
2022-09-17T14:08:15.962Z,39.00
2022-09-17T14:10:45.156Z,40.30
2022-09-17T14:13:42.493Z,40.30
2022-09-17T14:16:35.837Z,40.20
2022-09-17T14:19:22.599Z,40.30
2022-09-17T14:22:03.948Z,40.70
2022-09-17T14:24:37.792Z,41.00
2022-09-17T14:27:22.617Z,41.40
2022-09-17T14:30:19.792Z,41.30
2022-09-17T14:32:59.263Z,41.60
2022-09-17T14:35:33.014Z,41.20
2022-09-17T14:38:06.838Z,41.90
2022-09-17T14:40:35.454Z,41.90
2022-09-17T14:43:04.589Z,42.10
2022-09-17T14:45:34.457Z,42.70
2022-09-17T14:48:27.296Z,41.30
2022-09-17T14:51:12.176Z,41.90
2022-09-17T14:53:41.489Z,42.00
2022-09-17T14:56:12.489Z,41.40
2022-09-17T14:58:44.839Z,41.30
2022-09-17T15:01:24.101Z,42.00
2022-09-17T15:04:08.804Z,42.20
2022-09-17T15:06:36.860Z,42.40
2022-09-17T15:09:06.233Z,43.10
2022-09-17T15:11:41.777Z,43.10
2022-09-17T15:14:16.536Z,43.80
2022-09-17T15:16:49.677Z,44.20
2022-09-17T15:19:23.682Z,43.80
2022-09-17T15:21:55.466Z,43.90
2022-09-17T15:24:34.116Z,43.80
2022-09-17T15:27:07.975Z,43.80
2022-09-17T15:29:37.646Z,43.90
2022-09-17T15:32:07.181Z,43.70
2022-09-17T15:34:35.138Z,44.30
2022-09-17T15:37:07.419Z,44.00
2022-09-17T15:39:42.359Z,44.40
2022-09-17T15:42:20.414Z,44.20
2022-09-17T15:44:48.442Z,44.70
2022-09-17T15:47:35.929Z,44.10
2022-09-17T15:50:19.252Z,44.60
2022-09-17T15:52:47.851Z,44.80
2022-09-17T15:55:37.111Z,44.00
2022-09-17T15:58:20.432Z,44.60
2022-09-17T16:00:48.783Z,44.70
2022-09-17T16:04:06.905Z,44.40
2022-09-17T16:06:39.210Z,44.80
2022-09-17T16:09:37.908Z,44.80
2022-09-17T16:12:07.631Z,44.60
2022-09-17T16:14:35.599Z,45.00
2022-09-17T16:17:19.343Z,44.80
2022-09-17T16:19:47.382Z,45.00
2022-09-17T16:22:15.371Z,45.20
2022-09-17T16:24:43.604Z,45.40
2022-09-17T16:27:19.209Z,45.90
2022-09-17T16:29:47.387Z,45.90
2022-09-17T16:32:15.453Z,46.10
2022-09-17T16:34:43.437Z,47.20
2022-09-17T16:37:13.635Z,46.20
2022-09-17T16:39:42.116Z,46.50
2022-09-17T16:42:10.129Z,46.40
2022-09-17T16:44:39.472Z,47.70
2022-09-17T16:47:07.578Z,47.40
2022-09-17T16:49:35.669Z,47.30
2022-09-17T16:52:03.837Z,47.40
2022-09-17T16:54:31.854Z,47.60
2022-09-17T16:57:01.103Z,48.00
2022-09-17T16:59:29.108Z,49.70
2022-09-17T17:01:58.437Z,51.00
2022-09-17T17:04:26.435Z,51.00
2022-09-17T17:06:54.440Z,50.70
2022-09-17T17:09:22.412Z,51.60
2022-09-17T17:11:51.583Z,51.70
2022-09-17T17:14:19.653Z,52.10
2022-09-17T17:16:47.662Z,52.60
2022-09-17T17:19:17.749Z,52.90
2022-09-17T17:21:47.253Z,53.60
2022-09-17T17:24:15.431Z,52.80
2022-09-17T17:26:43.516Z,52.50
2022-09-17T17:29:11.608Z,52.90
2022-09-17T17:31:39.635Z,53.60
2022-09-17T17:34:07.808Z,53.60
2022-09-17T17:36:37.137Z,53.50
2022-09-17T17:39:05.298Z,54.20
2022-09-17T17:41:33.335Z,56.20
2022-09-17T17:44:01.274Z,56.00
2022-09-17T17:46:29.338Z,55.10
2022-09-17T17:48:58.171Z,57.10
2022-09-17T17:51:27.284Z,56.40
2022-09-17T17:53:56.568Z,56.80
2022-09-17T17:56:24.549Z,55.50
2022-09-17T17:58:56.508Z,58.20
2022-09-17T18:01:27.279Z,58.30
2022-09-17T18:03:58.080Z,59.30
2022-09-17T18:06:26.761Z,60.60
2022-09-17T18:08:56.417Z,60.00
2022-09-17T18:11:25.355Z,59.40
2022-09-17T18:13:54.845Z,63.60
2022-09-17T18:16:24.024Z,60.00
2022-09-17T18:18:52.296Z,60.20
2022-09-17T18:21:22.490Z,62.10
2022-09-17T18:23:51.350Z,62.30
2022-09-17T18:26:23.169Z,62.70
2022-09-17T18:28:52.049Z,63.70
2022-09-17T18:31:23.764Z,63.10
2022-09-17T18:33:55.417Z,64.50
2022-09-17T18:36:23.473Z,63.10
2022-09-17T18:38:54.235Z,62.70
2022-09-17T18:41:23.686Z,61.20
2022-09-17T18:43:51.817Z,63.20
2022-09-17T18:46:19.936Z,63.20
2022-09-17T18:48:52.376Z,63.70
2022-09-17T18:51:20.796Z,64.00
2022-09-17T18:53:51.598Z,67.30
2022-09-17T18:56:21.508Z,67.50
2022-09-17T18:58:53.813Z,67.30
2022-09-17T19:01:24.898Z,67.60
2022-09-17T19:03:52.976Z,69.50
2022-09-17T19:06:20.958Z,67.10
2022-09-17T19:08:50.049Z,67.10
2022-09-17T19:11:18.041Z,70.10
2022-09-17T19:13:47.512Z,67.60
2022-09-17T19:16:17.401Z,65.90
2022-09-17T19:18:45.421Z,65.70
2022-09-17T19:21:17.673Z,65.50
2022-09-17T19:23:47.151Z,68.90
2022-09-17T19:26:17.308Z,69.90
2022-09-17T19:28:45.535Z,69.70
2022-09-17T19:31:15.528Z,69.60
2022-09-17T19:33:45.394Z,69.30
2022-09-17T19:36:16.239Z,70.10
2022-09-17T19:38:45.080Z,71.80
2022-09-17T19:41:14.923Z,70.80
2022-09-17T19:43:43.555Z,70.90
2022-09-17T19:46:13.855Z,71.70
2022-09-17T19:48:47.119Z,72.10
2022-09-17T19:51:15.622Z,70.60
2022-09-17T19:53:44.133Z,72.90
2022-09-17T19:56:14.048Z,74.50
2022-09-17T19:58:42.189Z,74.40
2022-09-17T20:01:10.640Z,72.30
2022-09-17T20:03:40.118Z,72.90
2022-09-17T20:06:11.608Z,74.20
2022-09-17T20:08:47.053Z,74.60
2022-09-17T20:11:16.500Z,73.80
2022-09-17T20:13:44.802Z,72.90
2022-09-17T20:16:15.780Z,73.80
2022-09-17T20:18:44.855Z,74.00
2022-09-17T20:21:16.378Z,73.90
2022-09-17T20:23:44.941Z,75.20
2022-09-17T20:26:14.137Z,73.70
2022-09-17T20:28:42.258Z,74.00
2022-09-17T20:31:12.925Z,75.60
2022-09-17T20:33:41.287Z,76.20
2022-09-17T20:36:14.135Z,73.90
2022-09-17T20:41:31.664Z,71.80
2022-09-17T20:44:00.024Z,76.10
2022-09-17T20:46:29.532Z,76.70
2022-09-17T20:48:58.675Z,76.50
2022-09-17T20:51:30.004Z,75.70
2022-09-17T20:53:58.711Z,74.10
2022-09-17T20:56:28.658Z,75.50
2022-09-17T20:59:03.989Z,76.00
2022-09-17T21:01:34.450Z,74.00
2022-09-17T21:04:03.899Z,72.30
2022-09-17T21:06:35.292Z,72.50
2022-09-17T21:09:03.914Z,72.20
2022-09-17T21:11:32.671Z,74.60
2022-09-17T21:14:01.390Z,77.10
2022-09-17T21:16:30.186Z,78.00
2022-09-17T21:18:59.546Z,75.90
2022-09-17T21:21:28.288Z,77.50
2022-09-17T21:24:01.371Z,77.80
2022-09-17T21:26:29.657Z,78.10
2022-09-17T21:28:58.633Z,78.00
2022-09-17T21:31:32.315Z,75.20
2022-09-17T21:34:02.900Z,75.40
2022-09-17T21:36:32.726Z,78.30
2022-09-17T21:39:04.493Z,78.50
2022-09-17T21:41:33.169Z,78.30
2022-09-17T21:44:01.419Z,77.30
2022-09-17T21:46:33.214Z,75.50
2022-09-17T21:49:03.156Z,76.60
2022-09-17T21:51:34.008Z,78.20
2022-09-17T21:54:05.486Z,78.00
2022-09-17T21:56:33.790Z,75.40
2022-09-17T21:59:03.176Z,74.80
2022-09-17T22:01:33.046Z,74.80
2022-09-17T22:04:02.098Z,75.50
2022-09-17T22:06:32.705Z,78.00
2022-09-17T22:09:04.393Z,78.80
2022-09-17T22:11:34.842Z,79.20
2022-09-17T22:14:08.835Z,77.30
2022-09-17T22:16:39.218Z,76.30
2022-09-17T22:19:08.732Z,79.10
2022-09-17T22:21:38.417Z,80.60
2022-09-17T22:24:09.256Z,79.50
2022-09-17T22:26:39.051Z,78.10
2022-09-17T22:29:10.490Z,79.60
2022-09-17T22:31:38.609Z,80.60
2022-09-17T22:34:09.185Z,82.20
2022-09-17T22:36:37.569Z,80.80
2022-09-17T22:39:08.311Z,80.20
2022-09-17T22:41:38.305Z,79.50
2022-09-17T22:44:08.469Z,82.30
2022-09-17T22:46:39.304Z,83.40
2022-09-17T22:49:08.228Z,83.70
2022-09-17T22:51:36.212Z,80.40
2022-09-17T22:54:05.828Z,79.00
2022-09-17T22:56:36.181Z,78.30
2022-09-17T22:59:05.025Z,79.30
2022-09-17T23:01:36.191Z,81.20
2022-09-17T23:04:05.813Z,82.40
2022-09-17T23:06:35.520Z,81.60
2022-09-17T23:09:04.040Z,79.60
2022-09-17T23:11:34.989Z,79.10
2022-09-17T23:14:09.629Z,81.90
2022-09-17T23:16:39.758Z,82.40
2022-09-17T23:19:08.231Z,82.10
2022-09-17T23:21:36.320Z,81.20
2022-09-17T23:24:04.621Z,81.30
2022-09-17T23:26:34.310Z,82.00
2022-09-17T23:29:11.063Z,81.60
2022-09-17T23:31:39.280Z,81.40
2022-09-17T23:34:08.013Z,82.40
2022-09-17T23:36:38.047Z,83.10
2022-09-17T23:39:08.043Z,82.10
2022-09-17T23:41:40.009Z,81.80
2022-09-17T23:44:14.851Z,82.80
2022-09-17T23:46:45.180Z,83.60
2022-09-17T23:49:14.936Z,83.20
2022-09-17T23:51:43.270Z,82.50
2022-09-17T23:54:11.279Z,83.10
2022-09-17T23:56:41.195Z,84.40
2022-09-17T23:59:10.377Z,84.70
